sensor_id;sensor_type;location;lat;lon;timestamp;P1;durP1;ratioP1;P2;durP2;ratioP2
20179;SDS011;10249;48.900;9.090;2022-08-23T00:00:42;14.13;;;13.53;;
20179;SDS011;10249;48.900;9.090;2022-08-23T00:03:09;14.43;;;13.83;;
20179;SDS011;10249;48.900;9.090;2022-08-23T00:05:36;14.57;;;13.97;;
20179;SDS011;10249;48.900;9.090;2022-08-23T00:08:03;14.80;;;14.20;;
20179;SDS011;10249;48.900;9.090;2022-08-23T00:10:31;14.20;;;13.60;;
20179;SDS011;10249;48.900;9.090;2022-08-23T00:12:58;14.43;;;13.83;;
20179;SDS011;10249;48.900;9.090;2022-08-23T00:15:26;14.60;;;14.00;;
20179;SDS011;10249;48.900;9.090;2022-08-23T00:17:53;14.40;;;13.80;;
20179;SDS011;10249;48.900;9.090;2022-08-23T00:20:20;13.90;;;13.30;;
20179;SDS011;10249;48.900;9.090;2022-08-23T00:22:47;13.97;;;13.37;;
20179;SDS011;10249;48.900;9.090;2022-08-23T00:25:14;13.90;;;13.30;;
20179;SDS011;10249;48.900;9.090;2022-08-23T00:27:42;13.70;;;13.10;;
20179;SDS011;10249;48.900;9.090;2022-08-23T00:30:10;13.57;;;12.97;;
20179;SDS011;10249;48.900;9.090;2022-08-23T00:32:39;13.57;;;13.00;;
20179;SDS011;10249;48.900;9.090;2022-08-23T00:35:07;13.80;;;13.20;;
20179;SDS011;10249;48.900;9.090;2022-08-23T00:37:35;13.73;;;13.13;;
20179;SDS011;10249;48.900;9.090;2022-08-23T00:40:03;13.63;;;13.03;;
20179;SDS011;10249;48.900;9.090;2022-08-23T00:42:32;13.90;;;13.30;;
20179;SDS011;10249;48.900;9.090;2022-08-23T00:45:22;14.10;;;13.50;;
20179;SDS011;10249;48.900;9.090;2022-08-23T00:48:09;14.10;;;13.50;;
20179;SDS011;10249;48.900;9.090;2022-08-23T00:50:38;13.93;;;13.33;;
20179;SDS011;10249;48.900;9.090;2022-08-23T00:53:07;14.00;;;13.40;;
20179;SDS011;10249;48.900;9.090;2022-08-23T00:55:37;15.33;;;14.73;;
20179;SDS011;10249;48.900;9.090;2022-08-23T00:58:04;13.73;;;13.13;;
20179;SDS011;10249;48.900;9.090;2022-08-23T01:00:31;13.60;;;13.00;;
20179;SDS011;10249;48.900;9.090;2022-08-23T01:02:58;13.80;;;13.20;;
20179;SDS011;10249;48.900;9.090;2022-08-23T01:05:29;13.93;;;13.33;;
20179;SDS011;10249;48.900;9.090;2022-08-23T01:07:56;13.73;;;13.13;;
20179;SDS011;10249;48.900;9.090;2022-08-23T01:10:26;13.90;;;13.30;;
20179;SDS011;10249;48.900;9.090;2022-08-23T01:12:55;13.87;;;13.27;;
20179;SDS011;10249;48.900;9.090;2022-08-23T01:15:25;13.97;;;13.37;;
20179;SDS011;10249;48.900;9.090;2022-08-23T01:17:56;13.80;;;13.20;;
20179;SDS011;10249;48.900;9.090;2022-08-23T01:20:29;14.00;;;13.40;;
20179;SDS011;10249;48.900;9.090;2022-08-23T01:22:58;13.73;;;13.13;;
20179;SDS011;10249;48.900;9.090;2022-08-23T01:25:28;14.10;;;13.50;;
20179;SDS011;10249;48.900;9.090;2022-08-23T01:27:56;13.77;;;13.17;;
20179;SDS011;10249;48.900;9.090;2022-08-23T01:30:25;13.20;;;12.70;;
20179;SDS011;10249;48.900;9.090;2022-08-23T01:32:53;12.97;;;12.47;;
20179;SDS011;10249;48.900;9.090;2022-08-23T01:35:22;12.50;;;12.00;;
20179;SDS011;10249;48.900;9.090;2022-08-23T01:37:50;12.70;;;12.20;;
20179;SDS011;10249;48.900;9.090;2022-08-23T01:40:18;12.67;;;12.17;;
20179;SDS011;10249;48.900;9.090;2022-08-23T01:42:46;12.57;;;12.07;;
20179;SDS011;10249;48.900;9.090;2022-08-23T01:45:13;12.50;;;12.00;;
20179;SDS011;10249;48.900;9.090;2022-08-23T01:47:41;12.50;;;12.00;;
20179;SDS011;10249;48.900;9.090;2022-08-23T01:50:09;12.30;;;11.80;;
20179;SDS011;10249;48.900;9.090;2022-08-23T01:52:37;12.10;;;11.60;;
20179;SDS011;10249;48.900;9.090;2022-08-23T01:55:04;12.03;;;11.53;;
20179;SDS011;10249;48.900;9.090;2022-08-23T01:57:32;11.97;;;11.47;;
20179;SDS011;10249;48.900;9.090;2022-08-23T02:00:01;11.60;;;11.20;;
20179;SDS011;10249;48.900;9.090;2022-08-23T02:02:29;11.50;;;11.10;;
20179;SDS011;10249;48.900;9.090;2022-08-23T02:04:56;11.23;;;10.83;;
20179;SDS011;10249;48.900;9.090;2022-08-23T02:07:25;11.00;;;10.60;;
20179;SDS011;10249;48.900;9.090;2022-08-23T02:09:52;11.03;;;10.63;;
20179;SDS011;10249;48.900;9.090;2022-08-23T02:12:19;11.07;;;10.67;;
20179;SDS011;10249;48.900;9.090;2022-08-23T02:14:47;11.30;;;10.90;;
20179;SDS011;10249;48.900;9.090;2022-08-23T02:17:15;11.07;;;10.67;;
20179;SDS011;10249;48.900;9.090;2022-08-23T02:19:43;11.13;;;10.73;;
20179;SDS011;10249;48.900;9.090;2022-08-23T02:22:11;11.30;;;10.90;;
20179;SDS011;10249;48.900;9.090;2022-08-23T02:24:41;11.40;;;11.00;;
20179;SDS011;10249;48.900;9.090;2022-08-23T02:27:09;11.30;;;10.90;;
20179;SDS011;10249;48.900;9.090;2022-08-23T02:29:38;11.57;;;11.17;;
20179;SDS011;10249;48.900;9.090;2022-08-23T02:32:05;11.30;;;10.90;;
20179;SDS011;10249;48.900;9.090;2022-08-23T02:34:34;11.50;;;11.10;;
20179;SDS011;10249;48.900;9.090;2022-08-23T02:37:01;11.60;;;11.20;;
20179;SDS011;10249;48.900;9.090;2022-08-23T02:39:28;11.57;;;11.17;;
20179;SDS011;10249;48.900;9.090;2022-08-23T02:41:55;11.70;;;11.30;;
20179;SDS011;10249;48.900;9.090;2022-08-23T02:44:22;11.70;;;11.30;;
20179;SDS011;10249;48.900;9.090;2022-08-23T02:46:49;11.50;;;11.10;;
20179;SDS011;10249;48.900;9.090;2022-08-23T02:49:17;11.40;;;11.00;;
20179;SDS011;10249;48.900;9.090;2022-08-23T02:51:46;11.47;;;11.07;;
20179;SDS011;10249;48.900;9.090;2022-08-23T02:54:13;11.70;;;11.30;;
20179;SDS011;10249;48.900;9.090;2022-08-23T02:56:40;11.03;;;10.63;;
20179;SDS011;10249;48.900;9.090;2022-08-23T02:59:07;10.80;;;10.40;;
20179;SDS011;10249;48.900;9.090;2022-08-23T03:01:36;10.50;;;10.10;;
20179;SDS011;10249;48.900;9.090;2022-08-23T03:04:04;10.60;;;10.20;;
20179;SDS011;10249;48.900;9.090;2022-08-23T03:06:31;10.57;;;10.17;;
20179;SDS011;10249;48.900;9.090;2022-08-23T03:08:59;10.20;;;9.80;;
20179;SDS011;10249;48.900;9.090;2022-08-23T03:11:26;9.80;;;9.50;;
20179;SDS011;10249;48.900;9.090;2022-08-23T03:13:54;9.80;;;9.50;;
20179;SDS011;10249;48.900;9.090;2022-08-23T03:16:21;9.20;;;8.90;;
20179;SDS011;10249;48.900;9.090;2022-08-23T03:18:49;9.00;;;8.70;;
20179;SDS011;10249;48.900;9.090;2022-08-23T03:21:17;9.00;;;8.70;;
20179;SDS011;10249;48.900;9.090;2022-08-23T03:23:44;8.87;;;8.57;;
20179;SDS011;10249;48.900;9.090;2022-08-23T03:26:14;9.30;;;8.90;;
20179;SDS011;10249;48.900;9.090;2022-08-23T03:28:41;8.77;;;8.47;;
20179;SDS011;10249;48.900;9.090;2022-08-23T03:31:08;9.00;;;8.70;;
20179;SDS011;10249;48.900;9.090;2022-08-23T03:33:36;9.70;;;9.40;;
20179;SDS011;10249;48.900;9.090;2022-08-23T03:36:04;9.80;;;9.50;;
20179;SDS011;10249;48.900;9.090;2022-08-23T03:38:32;10.10;;;9.70;;
20179;SDS011;10249;48.900;9.090;2022-08-23T03:40:59;10.40;;;10.00;;
20179;SDS011;10249;48.900;9.090;2022-08-23T03:43:27;10.20;;;9.80;;
20179;SDS011;10249;48.900;9.090;2022-08-23T03:45:54;10.40;;;10.00;;
20179;SDS011;10249;48.900;9.090;2022-08-23T03:48:21;10.20;;;9.80;;
20179;SDS011;10249;48.900;9.090;2022-08-23T03:50:48;10.33;;;9.93;;
20179;SDS011;10249;48.900;9.090;2022-08-23T03:53:15;10.33;;;9.93;;
20179;SDS011;10249;48.900;9.090;2022-08-23T03:55:43;10.37;;;9.97;;
20179;SDS011;10249;48.900;9.090;2022-08-23T03:58:10;10.50;;;10.10;;
20179;SDS011;10249;48.900;9.090;2022-08-23T04:00:38;10.27;;;9.87;;
20179;SDS011;10249;48.900;9.090;2022-08-23T04:03:05;10.33;;;9.93;;
20179;SDS011;10249;48.900;9.090;2022-08-23T04:05:32;10.80;;;10.40;;
20179;SDS011;10249;48.900;9.090;2022-08-23T04:08:05;10.70;;;10.30;;
20179;SDS011;10249;48.900;9.090;2022-08-23T04:10:32;10.60;;;10.20;;
20179;SDS011;10249;48.900;9.090;2022-08-23T04:12:59;10.80;;;10.40;;
20179;SDS011;10249;48.900;9.090;2022-08-23T04:15:26;11.00;;;10.60;;
20179;SDS011;10249;48.900;9.090;2022-08-23T04:17:54;10.43;;;10.03;;
20179;SDS011;10249;48.900;9.090;2022-08-23T04:20:21;10.50;;;10.10;;
20179;SDS011;10249;48.900;9.090;2022-08-23T04:22:50;10.40;;;10.00;;
20179;SDS011;10249;48.900;9.090;2022-08-23T04:25:17;10.10;;;9.70;;
20179;SDS011;10249;48.900;9.090;2022-08-23T04:27:44;10.20;;;9.80;;
20179;SDS011;10249;48.900;9.090;2022-08-23T04:30:11;10.10;;;9.70;;
20179;SDS011;10249;48.900;9.090;2022-08-23T04:32:39;10.30;;;9.90;;
20179;SDS011;10249;48.900;9.090;2022-08-23T04:35:07;10.10;;;9.70;;
20179;SDS011;10249;48.900;9.090;2022-08-23T04:37:35;10.20;;;9.80;;
20179;SDS011;10249;48.900;9.090;2022-08-23T04:40:03;10.17;;;9.77;;
20179;SDS011;10249;48.900;9.090;2022-08-23T04:42:48;10.20;;;9.80;;
20179;SDS011;10249;48.900;9.090;2022-08-23T04:45:15;9.80;;;9.50;;
20179;SDS011;10249;48.900;9.090;2022-08-23T04:47:42;9.83;;;9.53;;
20179;SDS011;10249;48.900;9.090;2022-08-23T04:50:11;9.70;;;9.40;;
20179;SDS011;10249;48.900;9.090;2022-08-23T04:52:38;9.33;;;9.03;;
20179;SDS011;10249;48.900;9.090;2022-08-23T04:55:05;9.20;;;8.90;;
20179;SDS011;10249;48.900;9.090;2022-08-23T04:57:32;9.53;;;9.23;;
20179;SDS011;10249;48.900;9.090;2022-08-23T04:59:59;9.10;;;8.80;;
20179;SDS011;10249;48.900;9.090;2022-08-23T05:02:26;9.00;;;8.70;;
20179;SDS011;10249;48.900;9.090;2022-08-23T05:04:53;9.10;;;8.80;;
20179;SDS011;10249;48.900;9.090;2022-08-23T05:07:22;9.37;;;9.07;;
20179;SDS011;10249;48.900;9.090;2022-08-23T05:09:49;9.67;;;9.37;;
20179;SDS011;10249;48.900;9.090;2022-08-23T05:12:16;10.10;;;9.80;;
20179;SDS011;10249;48.900;9.090;2022-08-23T05:14:43;10.27;;;9.87;;
20179;SDS011;10249;48.900;9.090;2022-08-23T05:17:10;10.27;;;9.87;;
20179;SDS011;10249;48.900;9.090;2022-08-23T05:19:37;9.97;;;9.67;;
20179;SDS011;10249;48.900;9.090;2022-08-23T05:22:04;10.23;;;9.83;;
20179;SDS011;10249;48.900;9.090;2022-08-23T05:24:32;10.27;;;9.87;;
20179;SDS011;10249;48.900;9.090;2022-08-23T05:26:59;10.43;;;10.03;;
20179;SDS011;10249;48.900;9.090;2022-08-23T05:29:27;10.40;;;10.00;;
20179;SDS011;10249;48.900;9.090;2022-08-23T05:31:54;10.70;;;10.30;;
20179;SDS011;10249;48.900;9.090;2022-08-23T05:34:21;10.73;;;10.33;;
20179;SDS011;10249;48.900;9.090;2022-08-23T05:36:49;10.80;;;10.40;;
20179;SDS011;10249;48.900;9.090;2022-08-23T05:39:16;10.90;;;10.50;;
20179;SDS011;10249;48.900;9.090;2022-08-23T05:41:45;11.07;;;10.67;;
20179;SDS011;10249;48.900;9.090;2022-08-23T05:44:12;11.20;;;10.80;;
20179;SDS011;10249;48.900;9.090;2022-08-23T05:46:39;11.20;;;10.80;;
20179;SDS011;10249;48.900;9.090;2022-08-23T05:49:06;11.37;;;10.97;;
20179;SDS011;10249;48.900;9.090;2022-08-23T05:51:34;11.03;;;10.63;;
20179;SDS011;10249;48.900;9.090;2022-08-23T05:54:03;11.00;;;10.60;;
20179;SDS011;10249;48.900;9.090;2022-08-23T05:56:32;11.27;;;10.87;;
20179;SDS011;10249;48.900;9.090;2022-08-23T05:59:01;11.40;;;11.00;;
20179;SDS011;10249;48.900;9.090;2022-08-23T06:01:29;11.10;;;10.70;;
20179;SDS011;10249;48.900;9.090;2022-08-23T06:03:57;11.07;;;10.67;;
20179;SDS011;10249;48.900;9.090;2022-08-23T06:06:24;11.30;;;10.90;;
20179;SDS011;10249;48.900;9.090;2022-08-23T06:08:52;11.30;;;10.90;;
20179;SDS011;10249;48.900;9.090;2022-08-23T06:11:19;11.70;;;11.30;;
20179;SDS011;10249;48.900;9.090;2022-08-23T06:13:48;11.33;;;10.93;;
20179;SDS011;10249;48.900;9.090;2022-08-23T06:16:17;11.53;;;11.13;;
20179;SDS011;10249;48.900;9.090;2022-08-23T06:18:45;11.70;;;11.30;;
20179;SDS011;10249;48.900;9.090;2022-08-23T06:21:13;12.00;;;11.50;;
20179;SDS011;10249;48.900;9.090;2022-08-23T06:23:40;11.80;;;11.40;;
20179;SDS011;10249;48.900;9.090;2022-08-23T06:26:08;11.33;;;10.93;;
20179;SDS011;10249;48.900;9.090;2022-08-23T06:28:36;11.70;;;11.30;;
20179;SDS011;10249;48.900;9.090;2022-08-23T06:31:03;11.83;;;11.43;;
20179;SDS011;10249;48.900;9.090;2022-08-23T06:33:32;11.60;;;11.20;;
20179;SDS011;10249;48.900;9.090;2022-08-23T06:36:00;11.80;;;11.40;;
20179;SDS011;10249;48.900;9.090;2022-08-23T06:38:28;12.13;;;11.67;;
20179;SDS011;10249;48.900;9.090;2022-08-23T06:40:58;12.20;;;11.70;;
20179;SDS011;10249;48.900;9.090;2022-08-23T06:43:25;12.40;;;11.90;;
20179;SDS011;10249;48.900;9.090;2022-08-23T06:45:52;12.30;;;11.80;;
20179;SDS011;10249;48.900;9.090;2022-08-23T06:48:19;12.20;;;11.70;;
20179;SDS011;10249;48.900;9.090;2022-08-23T06:50:48;12.40;;;11.90;;
20179;SDS011;10249;48.900;9.090;2022-08-23T06:53:15;12.60;;;12.10;;
20179;SDS011;10249;48.900;9.090;2022-08-23T06:55:42;12.60;;;12.10;;
20179;SDS011;10249;48.900;9.090;2022-08-23T06:58:09;13.00;;;12.50;;
20179;SDS011;10249;48.900;9.090;2022-08-23T07:00:36;13.27;;;12.77;;
20179;SDS011;10249;48.900;9.090;2022-08-23T07:03:03;13.30;;;12.80;;
20179;SDS011;10249;48.900;9.090;2022-08-23T07:05:30;13.30;;;12.80;;
20179;SDS011;10249;48.900;9.090;2022-08-23T07:07:58;13.60;;;13.10;;
20179;SDS011;10249;48.900;9.090;2022-08-23T07:10:25;13.40;;;12.90;;
20179;SDS011;10249;48.900;9.090;2022-08-23T07:12:52;13.57;;;12.97;;
20179;SDS011;10249;48.900;9.090;2022-08-23T07:15:19;13.43;;;12.83;;
20179;SDS011;10249;48.900;9.090;2022-08-23T07:17:46;13.70;;;13.10;;
20179;SDS011;10249;48.900;9.090;2022-08-23T07:20:13;14.20;;;13.60;;
20179;SDS011;10249;48.900;9.090;2022-08-23T07:22:40;13.60;;;13.00;;
20179;SDS011;10249;48.900;9.090;2022-08-23T07:25:09;13.73;;;13.13;;
20179;SDS011;10249;48.900;9.090;2022-08-23T07:27:36;13.97;;;13.37;;
20179;SDS011;10249;48.900;9.090;2022-08-23T07:30:04;13.90;;;13.30;;
20179;SDS011;10249;48.900;9.090;2022-08-23T07:32:31;14.30;;;13.70;;
20179;SDS011;10249;48.900;9.090;2022-08-23T07:34:59;13.80;;;13.20;;
20179;SDS011;10249;48.900;9.090;2022-08-23T07:37:26;14.13;;;13.53;;
20179;SDS011;10249;48.900;9.090;2022-08-23T07:39:54;14.20;;;13.60;;
20179;SDS011;10249;48.900;9.090;2022-08-23T07:42:23;14.07;;;13.47;;
20179;SDS011;10249;48.900;9.090;2022-08-23T07:44:50;14.20;;;13.60;;
20179;SDS011;10249;48.900;9.090;2022-08-23T07:47:17;14.20;;;13.60;;
20179;SDS011;10249;48.900;9.090;2022-08-23T07:49:45;14.10;;;13.50;;
20179;SDS011;10249;48.900;9.090;2022-08-23T07:52:12;14.40;;;13.80;;
20179;SDS011;10249;48.900;9.090;2022-08-23T07:54:39;14.50;;;13.90;;
20179;SDS011;10249;48.900;9.090;2022-08-23T07:57:06;14.40;;;13.80;;
20179;SDS011;10249;48.900;9.090;2022-08-23T07:59:34;14.30;;;13.70;;
20179;SDS011;10249;48.900;9.090;2022-08-23T08:02:02;14.53;;;13.93;;
20179;SDS011;10249;48.900;9.090;2022-08-23T08:04:29;14.50;;;13.90;;
20179;SDS011;10249;48.900;9.090;2022-08-23T08:06:56;14.80;;;14.10;;
20179;SDS011;10249;48.900;9.090;2022-08-23T08:09:24;14.43;;;13.83;;
20179;SDS011;10249;48.900;9.090;2022-08-23T08:11:51;14.40;;;13.80;;
20179;SDS011;10249;48.900;9.090;2022-08-23T08:14:18;15.00;;;14.30;;
20179;SDS011;10249;48.900;9.090;2022-08-23T08:16:47;14.73;;;14.07;;
20179;SDS011;10249;48.900;9.090;2022-08-23T08:19:16;14.80;;;14.10;;
20179;SDS011;10249;48.900;9.090;2022-08-23T08:21:43;14.83;;;14.13;;
20179;SDS011;10249;48.900;9.090;2022-08-23T08:24:12;14.90;;;14.20;;
20179;SDS011;10249;48.900;9.090;2022-08-23T08:26:40;14.73;;;14.03;;
20179;SDS011;10249;48.900;9.090;2022-08-23T08:29:08;15.00;;;14.30;;
20179;SDS011;10249;48.900;9.090;2022-08-23T08:31:36;14.70;;;14.00;;
20179;SDS011;10249;48.900;9.090;2022-08-23T08:34:04;14.60;;;13.90;;
20179;SDS011;10249;48.900;9.090;2022-08-23T08:36:32;15.10;;;14.40;;
20179;SDS011;10249;48.900;9.090;2022-08-23T08:39:01;14.80;;;14.10;;
20179;SDS011;10249;48.900;9.090;2022-08-23T08:41:34;14.97;;;14.27;;
20179;SDS011;10249;48.900;9.090;2022-08-23T08:44:06;15.07;;;14.37;;
20179;SDS011;10249;48.900;9.090;2022-08-23T08:46:38;14.90;;;14.20;;
20179;SDS011;10249;48.900;9.090;2022-08-23T08:49:08;14.90;;;14.20;;
20179;SDS011;10249;48.900;9.090;2022-08-23T08:51:40;15.50;;;14.80;;
20179;SDS011;10249;48.900;9.090;2022-08-23T08:54:12;14.87;;;14.17;;
20179;SDS011;10249;48.900;9.090;2022-08-23T08:56:40;15.03;;;14.33;;
20179;SDS011;10249;48.900;9.090;2022-08-23T08:59:10;15.00;;;14.30;;
20179;SDS011;10249;48.900;9.090;2022-08-23T09:01:39;15.10;;;14.40;;
20179;SDS011;10249;48.900;9.090;2022-08-23T09:04:07;15.20;;;14.50;;
20179;SDS011;10249;48.900;9.090;2022-08-23T09:06:40;15.90;;;15.10;;
20179;SDS011;10249;48.900;9.090;2022-08-23T09:09:13;15.10;;;14.40;;
20179;SDS011;10249;48.900;9.090;2022-08-23T09:11:46;15.03;;;14.33;;
20179;SDS011;10249;48.900;9.090;2022-08-23T09:14:17;15.27;;;14.57;;
20179;SDS011;10249;48.900;9.090;2022-08-23T09:16:48;14.77;;;14.07;;
20179;SDS011;10249;48.900;9.090;2022-08-23T09:19:17;15.02;;;14.32;;
20179;SDS011;10249;48.900;9.090;2022-08-23T09:21:45;15.47;;;14.77;;
20179;SDS011;10249;48.900;9.090;2022-08-23T09:24:13;15.10;;;14.40;;
20179;SDS011;10249;48.900;9.090;2022-08-23T09:26:40;15.57;;;14.80;;
20179;SDS011;10249;48.900;9.090;2022-08-23T09:29:13;15.25;;;14.55;;
20179;SDS011;10249;48.900;9.090;2022-08-23T09:31:42;15.35;;;14.65;;
20179;SDS011;10249;48.900;9.090;2022-08-23T09:34:14;15.65;;;14.85;;
20179;SDS011;10249;48.900;9.090;2022-08-23T09:36:43;15.20;;;14.50;;
20179;SDS011;10249;48.900;9.090;2022-08-23T09:39:22;15.40;;;14.70;;
20179;SDS011;10249;48.900;9.090;2022-08-23T09:41:49;15.30;;;14.60;;
20179;SDS011;10249;48.900;9.090;2022-08-23T09:44:29;15.30;;;14.60;;
20179;SDS011;10249;48.900;9.090;2022-08-23T09:47:03;15.27;;;14.57;;
20179;SDS011;10249;48.900;9.090;2022-08-23T09:49:30;15.30;;;14.60;;
20179;SDS011;10249;48.900;9.090;2022-08-23T09:51:59;15.10;;;14.40;;
20179;SDS011;10249;48.900;9.090;2022-08-23T09:54:28;15.63;;;14.93;;
20179;SDS011;10249;48.900;9.090;2022-08-23T09:56:56;15.77;;;15.07;;
20179;SDS011;10249;48.900;9.090;2022-08-23T09:59:30;15.57;;;14.88;;
20179;SDS011;10249;48.900;9.090;2022-08-23T10:01:59;16.17;;;15.38;;
20179;SDS011;10249;48.900;9.090;2022-08-23T10:04:29;16.25;;;15.45;;
20179;SDS011;10249;48.900;9.090;2022-08-23T10:07:19;15.15;;;14.45;;
20179;SDS011;10249;48.900;9.090;2022-08-23T10:09:46;15.52;;;14.75;;
20179;SDS011;10249;48.900;9.090;2022-08-23T10:12:13;15.63;;;14.82;;
20179;SDS011;10249;48.900;9.090;2022-08-23T10:14:40;15.43;;;14.63;;
20179;SDS011;10249;48.900;9.090;2022-08-23T10:17:08;15.70;;;14.90;;
20179;SDS011;10249;48.900;9.090;2022-08-23T10:19:40;15.48;;;14.68;;
20179;SDS011;10249;48.900;9.090;2022-08-23T10:22:10;15.15;;;14.45;;
20179;SDS011;10249;48.900;9.090;2022-08-23T10:24:42;16.60;;;15.70;;
20179;SDS011;10249;48.900;9.090;2022-08-23T10:27:14;16.60;;;15.75;;
20179;SDS011;10249;48.900;9.090;2022-08-23T10:30:02;16.50;;;15.70;;
20179;SDS011;10249;48.900;9.090;2022-08-23T10:32:33;15.88;;;15.07;;
20179;SDS011;10249;48.900;9.090;2022-08-23T10:35:05;15.75;;;15.05;;
20179;SDS011;10249;48.900;9.090;2022-08-23T10:37:45;15.80;;;15.00;;
20179;SDS011;10249;48.900;9.090;2022-08-23T10:40:15;15.27;;;14.57;;
20179;SDS011;10249;48.900;9.090;2022-08-23T10:42:46;15.27;;;14.57;;
20179;SDS011;10249;48.900;9.090;2022-08-23T10:45:19;16.00;;;15.10;;
20179;SDS011;10249;48.900;9.090;2022-08-23T10:47:51;15.35;;;14.65;;
20179;SDS011;10249;48.900;9.090;2022-08-23T10:50:22;15.05;;;14.35;;
20179;SDS011;10249;48.900;9.090;2022-08-23T10:52:52;15.20;;;14.50;;
20179;SDS011;10249;48.900;9.090;2022-08-23T10:55:22;15.57;;;14.88;;
20179;SDS011;10249;48.900;9.090;2022-08-23T10:58:00;15.60;;;14.90;;
20179;SDS011;10249;48.900;9.090;2022-08-23T11:00:29;15.25;;;14.55;;
20179;SDS011;10249;48.900;9.090;2022-08-23T11:02:58;17.65;;;16.45;;
20179;SDS011;10249;48.900;9.090;2022-08-23T11:05:30;16.00;;;15.20;;
20179;SDS011;10249;48.900;9.090;2022-08-23T11:07:59;15.90;;;15.10;;
20179;SDS011;10249;48.900;9.090;2022-08-23T11:10:31;16.10;;;15.30;;
20179;SDS011;10249;48.900;9.090;2022-08-23T11:13:00;16.15;;;15.35;;
20179;SDS011;10249;48.900;9.090;2022-08-23T11:15:30;15.75;;;14.95;;
20179;SDS011;10249;48.900;9.090;2022-08-23T11:17:59;15.77;;;15.00;;
20179;SDS011;10249;48.900;9.090;2022-08-23T11:23:13;16.38;;;15.57;;
20179;SDS011;10249;48.900;9.090;2022-08-23T11:25:42;15.88;;;15.07;;
20179;SDS011;10249;48.900;9.090;2022-08-23T11:30:56;15.77;;;14.98;;
20179;SDS011;10249;48.900;9.090;2022-08-23T11:33:26;16.13;;;15.32;;
20179;SDS011;10249;48.900;9.090;2022-08-23T11:39:00;15.43;;;14.73;;
20179;SDS011;10249;48.900;9.090;2022-08-23T11:41:29;16.20;;;15.40;;
20179;SDS011;10249;48.900;9.090;2022-08-23T11:44:16;16.30;;;15.50;;
20179;SDS011;10249;48.900;9.090;2022-08-23T11:46:54;15.93;;;15.13;;
20179;SDS011;10249;48.900;9.090;2022-08-23T11:49:40;16.05;;;15.25;;
20179;SDS011;10249;48.900;9.090;2022-08-23T11:52:10;15.20;;;14.50;;
20179;SDS011;10249;48.900;9.090;2022-08-23T11:54:48;15.70;;;14.98;;
20179;SDS011;10249;48.900;9.090;2022-08-23T11:57:22;15.38;;;14.68;;
20179;SDS011;10249;48.900;9.090;2022-08-23T11:59:59;15.40;;;14.70;;
20179;SDS011;10249;48.900;9.090;2022-08-23T12:02:32;15.85;;;15.05;;
20179;SDS011;10249;48.900;9.090;2022-08-23T12:05:00;15.98;;;15.18;;
20179;SDS011;10249;48.900;9.090;2022-08-23T12:07:43;15.27;;;14.57;;
20179;SDS011;10249;48.900;9.090;2022-08-23T12:10:11;15.50;;;14.80;;
20179;SDS011;10249;48.900;9.090;2022-08-23T12:12:42;15.40;;;14.70;;
20179;SDS011;10249;48.900;9.090;2022-08-23T12:15:10;15.20;;;14.50;;
20179;SDS011;10249;48.900;9.090;2022-08-23T12:17:54;15.38;;;14.68;;
20179;SDS011;10249;48.900;9.090;2022-08-23T12:20:29;15.23;;;14.52;;
20179;SDS011;10249;48.900;9.090;2022-08-23T12:25:38;15.13;;;14.43;;
20179;SDS011;10249;48.900;9.090;2022-08-23T12:28:12;15.23;;;14.52;;
20179;SDS011;10249;48.900;9.090;2022-08-23T12:30:49;15.35;;;14.65;;
20179;SDS011;10249;48.900;9.090;2022-08-23T12:33:20;15.27;;;14.57;;
20179;SDS011;10249;48.900;9.090;2022-08-23T12:35:53;15.23;;;14.52;;
20179;SDS011;10249;48.900;9.090;2022-08-23T12:38:28;15.27;;;14.57;;
20179;SDS011;10249;48.900;9.090;2022-08-23T12:40:59;15.48;;;14.77;;
20179;SDS011;10249;48.900;9.090;2022-08-23T12:43:38;15.20;;;14.50;;
20179;SDS011;10249;48.900;9.090;2022-08-23T12:46:26;15.07;;;14.38;;
20179;SDS011;10249;48.900;9.090;2022-08-23T12:48:53;15.00;;;14.30;;
20179;SDS011;10249;48.900;9.090;2022-08-23T12:51:20;15.00;;;14.30;;
20179;SDS011;10249;48.900;9.090;2022-08-23T12:53:48;15.27;;;14.57;;
20179;SDS011;10249;48.900;9.090;2022-08-23T12:56:15;15.05;;;14.35;;
20179;SDS011;10249;48.900;9.090;2022-08-23T12:58:45;15.00;;;14.30;;
20179;SDS011;10249;48.900;9.090;2022-08-23T13:01:16;15.30;;;14.60;;
20179;SDS011;10249;48.900;9.090;2022-08-23T13:03:46;15.23;;;14.52;;
20179;SDS011;10249;48.900;9.090;2022-08-23T13:06:15;15.20;;;14.50;;
20179;SDS011;10249;48.900;9.090;2022-08-23T13:08:45;15.05;;;14.35;;
20179;SDS011;10249;48.900;9.090;2022-08-23T13:11:13;14.98;;;14.27;;
20179;SDS011;10249;48.900;9.090;2022-08-23T13:13:45;14.95;;;14.25;;
20179;SDS011;10249;48.900;9.090;2022-08-23T13:16:23;15.10;;;14.40;;
20179;SDS011;10249;48.900;9.090;2022-08-23T13:18:50;15.10;;;14.40;;
20179;SDS011;10249;48.900;9.090;2022-08-23T13:21:19;15.15;;;14.45;;
20179;SDS011;10249;48.900;9.090;2022-08-23T13:23:50;15.27;;;14.57;;
20179;SDS011;10249;48.900;9.090;2022-08-23T13:26:24;15.32;;;14.57;;
20179;SDS011;10249;48.900;9.090;2022-08-23T13:29:04;15.50;;;14.77;;
20179;SDS011;10249;48.900;9.090;2022-08-23T13:31:51;16.77;;;15.73;;
20179;SDS011;10249;48.900;9.090;2022-08-23T13:34:32;15.35;;;14.65;;
20179;SDS011;10249;48.900;9.090;2022-08-23T13:36:59;15.80;;;14.90;;
20179;SDS011;10249;48.900;9.090;2022-08-23T13:39:27;15.35;;;14.65;;
20179;SDS011;10249;48.900;9.090;2022-08-23T13:41:55;15.10;;;14.40;;
20179;SDS011;10249;48.900;9.090;2022-08-23T13:44:24;15.18;;;14.48;;
20179;SDS011;10249;48.900;9.090;2022-08-23T13:46:52;15.32;;;14.63;;
20179;SDS011;10249;48.900;9.090;2022-08-23T13:49:23;15.27;;;14.57;;
20179;SDS011;10249;48.900;9.090;2022-08-23T13:52:05;15.00;;;14.30;;
20179;SDS011;10249;48.900;9.090;2022-08-23T13:54:33;15.25;;;14.55;;
20179;SDS011;10249;48.900;9.090;2022-08-23T13:57:01;15.50;;;14.70;;
20179;SDS011;10249;48.900;9.090;2022-08-23T13:59:31;15.07;;;14.38;;
20179;SDS011;10249;48.900;9.090;2022-08-23T14:01:59;15.23;;;14.52;;
20179;SDS011;10249;48.900;9.090;2022-08-23T14:04:27;14.88;;;14.18;;
20179;SDS011;10249;48.900;9.090;2022-08-23T14:06:54;15.02;;;14.32;;
20179;SDS011;10249;48.900;9.090;2022-08-23T14:09:21;15.18;;;14.48;;
20179;SDS011;10249;48.900;9.090;2022-08-23T14:11:52;15.30;;;14.60;;
20179;SDS011;10249;48.900;9.090;2022-08-23T14:14:19;14.85;;;14.15;;
20179;SDS011;10249;48.900;9.090;2022-08-23T14:16:48;14.80;;;14.10;;
20179;SDS011;10249;48.900;9.090;2022-08-23T14:19:17;14.77;;;14.07;;
20179;SDS011;10249;48.900;9.090;2022-08-23T14:21:44;14.80;;;14.10;;
20179;SDS011;10249;48.900;9.090;2022-08-23T14:24:11;14.70;;;14.00;;
20179;SDS011;10249;48.900;9.090;2022-08-23T14:26:38;14.82;;;14.13;;
20179;SDS011;10249;48.900;9.090;2022-08-23T14:29:05;15.27;;;14.57;;
20179;SDS011;10249;48.900;9.090;2022-08-23T14:31:33;15.05;;;14.35;;
20179;SDS011;10249;48.900;9.090;2022-08-23T14:34:01;16.25;;;15.45;;
20179;SDS011;10249;48.900;9.090;2022-08-23T14:36:28;15.25;;;14.55;;
20179;SDS011;10249;48.900;9.090;2022-08-23T14:38:55;15.18;;;14.48;;
20179;SDS011;10249;48.900;9.090;2022-08-23T14:41:23;14.95;;;14.25;;
20179;SDS011;10249;48.900;9.090;2022-08-23T14:43:51;15.20;;;14.50;;
20179;SDS011;10249;48.900;9.090;2022-08-23T14:46:18;15.52;;;14.80;;